sensor_id;sensor_type;location;lat;lon;timestamp;pressure;altitude;pressure_sealevel;temperature;humidity
43071;BME280;36278;47.952;21.714;2022-11-02T00:01:22;100889.03;;;11.29;100.00
43071;BME280;36278;47.952;21.714;2022-11-02T00:03:48;100879.50;;;11.26;100.00
43071;BME280;36278;47.952;21.714;2022-11-02T00:06:14;100887.13;;;11.31;100.00
43071;BME280;36278;47.952;21.714;2022-11-02T00:08:39;100895.06;;;11.31;100.00
43071;BME280;36278;47.952;21.714;2022-11-02T00:11:05;100885.66;;;11.27;100.00
43071;BME280;36278;47.952;21.714;2022-11-02T00:13:30;100888.19;;;11.28;100.00
43071;BME280;36278;47.952;21.714;2022-11-02T00:15:56;100883.00;;;11.27;100.00
43071;BME280;36278;47.952;21.714;2022-11-02T00:18:22;100890.00;;;11.28;100.00
43071;BME280;36278;47.952;21.714;2022-11-02T00:20:47;100886.50;;;11.27;100.00
43071;BME280;36278;47.952;21.714;2022-11-02T00:23:13;100891.38;;;11.33;100.00
43071;BME280;36278;47.952;21.714;2022-11-02T00:25:40;100881.72;;;11.32;100.00
43071;BME280;36278;47.952;21.714;2022-11-02T00:28:06;100887.03;;;11.32;100.00
43071;BME280;36278;47.952;21.714;2022-11-02T00:30:32;100884.38;;;11.32;100.00
43071;BME280;36278;47.952;21.714;2022-11-02T00:32:57;100892.34;;;11.32;100.00
43071;BME280;36278;47.952;21.714;2022-11-02T00:35:23;100879.38;;;11.28;100.00
43071;BME280;36278;47.952;21.714;2022-11-02T00:37:48;100885.66;;;11.27;100.00
43071;BME280;36278;47.952;21.714;2022-11-02T00:40:14;100891.38;;;11.33;100.00
43071;BME280;36278;47.952;21.714;2022-11-02T00:42:39;100878.53;;;11.27;100.00
43071;BME280;36278;47.952;21.714;2022-11-02T00:45:06;100896.03;;;11.30;100.00
43071;BME280;36278;47.952;21.714;2022-11-02T00:47:31;100892.88;;;11.25;100.00
43071;BME280;36278;47.952;21.714;2022-11-02T00:49:57;100893.16;;;11.20;100.00
43071;BME280;36278;47.952;21.714;2022-11-02T00:52:23;100885.44;;;11.17;100.00
43071;BME280;36278;47.952;21.714;2022-11-02T00:54:48;100896.25;;;11.14;100.00
43071;BME280;36278;47.952;21.714;2022-11-02T00:57:14;100897.41;;;11.10;100.00
43071;BME280;36278;47.952;21.714;2022-11-02T00:59:39;100884.03;;;11.11;100.00
43071;BME280;36278;47.952;21.714;2022-11-02T01:02:04;100882.34;;;11.10;100.00
43071;BME280;36278;47.952;21.714;2022-11-02T01:04:30;100886.06;;;11.08;100.00
43071;BME280;36278;47.952;21.714;2022-11-02T01:06:55;100879.91;;;11.07;100.00
43071;BME280;36278;47.952;21.714;2022-11-02T01:09:21;100875.13;;;11.12;100.00
43071;BME280;36278;47.952;21.714;2022-11-02T01:11:46;100883.63;;;11.17;100.00
43071;BME280;36278;47.952;21.714;2022-11-02T01:14:12;100879.59;;;11.12;100.00
43071;BME280;36278;47.952;21.714;2022-11-02T01:16:38;100887.31;;;11.15;100.00
43071;BME280;36278;47.952;21.714;2022-11-02T01:19:06;100891.69;;;11.16;100.00
43071;BME280;36278;47.952;21.714;2022-11-02T01:21:31;100894.25;;;11.17;100.00
43071;BME280;36278;47.952;21.714;2022-11-02T01:23:57;100899.66;;;11.16;100.00
43071;BME280;36278;47.952;21.714;2022-11-02T01:26:22;100893.59;;;11.14;100.00
43071;BME280;36278;47.952;21.714;2022-11-02T01:28:48;100895.81;;;11.07;100.00
43071;BME280;36278;47.952;21.714;2022-11-02T01:31:14;100890.59;;;11.06;100.00
43071;BME280;36278;47.952;21.714;2022-11-02T01:33:44;100894.75;;;11.10;100.00
43071;BME280;36278;47.952;21.714;2022-11-02T01:36:10;100890.09;;;11.13;100.00
43071;BME280;36278;47.952;21.714;2022-11-02T01:38:36;100890.94;;;11.14;100.00
43071;BME280;36278;47.952;21.714;2022-11-02T01:41:01;100887.53;;;11.12;100.00
43071;BME280;36278;47.952;21.714;2022-11-02T01:43:29;100896.75;;;11.06;100.00
43071;BME280;36278;47.952;21.714;2022-11-02T01:46:07;100882.03;;;11.02;100.00
43071;BME280;36278;47.952;21.714;2022-11-02T01:48:41;100875.56;;;11.06;100.00
43071;BME280;36278;47.952;21.714;2022-11-02T01:53:55;100876.63;;;11.04;100.00
43071;BME280;36278;47.952;21.714;2022-11-02T01:56:22;100873.22;;;11.02;100.00
43071;BME280;36278;47.952;21.714;2022-11-02T01:58:56;100875.47;;;11.08;100.00
43071;BME280;36278;47.952;21.714;2022-11-02T02:01:22;100877.25;;;11.07;100.00
43071;BME280;36278;47.952;21.714;2022-11-02T02:03:49;100872.28;;;11.03;100.00
43071;BME280;36278;47.952;21.714;2022-11-02T02:06:15;100876.06;;;10.99;100.00
43071;BME280;36278;47.952;21.714;2022-11-02T02:08:46;100881.38;;;10.99;100.00
43071;BME280;36278;47.952;21.714;2022-11-02T02:11:31;100895.28;;;11.02;100.00
43071;BME280;36278;47.952;21.714;2022-11-02T02:33:37;100872.03;;;10.80;100.00
43071;BME280;36278;47.952;21.714;2022-11-02T02:38:48;100900.03;;;10.84;100.00
43071;BME280;36278;47.952;21.714;2022-11-02T02:41:40;100912.34;;;10.85;100.00
43071;BME280;36278;47.952;21.714;2022-11-02T02:44:12;100905.75;;;10.78;100.00
43071;BME280;36278;47.952;21.714;2022-11-02T02:46:45;100895.25;;;10.77;100.00
43071;BME280;36278;47.952;21.714;2022-11-02T02:49:17;100893.13;;;10.82;100.00
43071;BME280;36278;47.952;21.714;2022-11-02T02:51:44;100894.53;;;10.87;100.00
43071;BME280;36278;47.952;21.714;2022-11-02T02:54:15;100885.09;;;10.83;100.00
43071;BME280;36278;47.952;21.714;2022-11-02T02:56:47;100898.97;;;10.87;100.00
43071;BME280;36278;47.952;21.714;2022-11-02T02:59:15;100903.00;;;10.80;100.00
43071;BME280;36278;47.952;21.714;2022-11-02T03:01:43;100900.88;;;10.85;100.00
43071;BME280;36278;47.952;21.714;2022-11-02T03:04:13;100902.38;;;10.89;100.00
43071;BME280;36278;47.952;21.714;2022-11-02T03:06:41;100908.63;;;10.88;100.00
43071;BME280;36278;47.952;21.714;2022-11-02T03:09:09;100917.13;;;10.93;100.00
43071;BME280;36278;47.952;21.714;2022-11-02T03:17:21;100916.25;;;10.80;100.00
43071;BME280;36278;47.952;21.714;2022-11-02T03:19:56;100924.41;;;10.77;100.00
43071;BME280;36278;47.952;21.714;2022-11-02T03:25:54;100915.28;;;10.81;100.00
43071;BME280;36278;47.952;21.714;2022-11-02T03:31:12;100928.00;;;10.76;100.00
43071;BME280;36278;47.952;21.714;2022-11-02T03:33:46;100927.78;;;10.79;100.00
43071;BME280;36278;47.952;21.714;2022-11-02T03:36:19;100921.66;;;10.78;100.00
43071;BME280;36278;47.952;21.714;2022-11-02T03:38:54;100929.25;;;10.70;100.00
43071;BME280;36278;47.952;21.714;2022-11-02T03:41:20;100930.44;;;10.79;100.00
43071;BME280;36278;47.952;21.714;2022-11-02T03:43:47;100919.84;;;10.79;100.00
43071;BME280;36278;47.952;21.714;2022-11-02T03:46:17;100920.59;;;10.81;100.00
43071;BME280;36278;47.952;21.714;2022-11-02T03:48:45;100910.94;;;10.80;100.00
43071;BME280;36278;47.952;21.714;2022-11-02T03:51:14;100904.06;;;10.77;100.00
43071;BME280;36278;47.952;21.714;2022-11-02T03:56:34;100913.38;;;10.83;100.00
43071;BME280;36278;47.952;21.714;2022-11-02T03:59:02;100916.91;;;10.83;100.00
43071;BME280;36278;47.952;21.714;2022-11-02T04:01:28;100903.84;;;10.80;100.00
43071;BME280;36278;47.952;21.714;2022-11-02T04:03:55;100918.69;;;10.83;100.00
43071;BME280;36278;47.952;21.714;2022-11-02T04:06:21;100919.22;;;10.88;100.00
43071;BME280;36278;47.952;21.714;2022-11-02T04:08:48;100918.50;;;10.86;100.00
43071;BME280;36278;47.952;21.714;2022-11-02T04:11:14;100919.22;;;10.88;100.00
43071;BME280;36278;47.952;21.714;2022-11-02T04:13:58;100914.16;;;10.85;100.00
43071;BME280;36278;47.952;21.714;2022-11-02T04:16:42;100927.19;;;10.88;100.00
43071;BME280;36278;47.952;21.714;2022-11-02T04:19:09;100917.22;;;10.91;100.00
43071;BME280;36278;47.952;21.714;2022-11-02T04:21:56;100915.44;;;10.92;100.00
43071;BME280;36278;47.952;21.714;2022-11-02T04:24:40;100919.66;;;10.94;100.00
43071;BME280;36278;47.952;21.714;2022-11-02T04:27:24;100918.50;;;10.99;100.00
43071;BME280;36278;47.952;21.714;2022-11-02T04:29:50;100919.34;;;10.99;100.00
43071;BME280;36278;47.952;21.714;2022-11-02T04:32:16;100921.91;;;11.01;100.00
43071;BME280;36278;47.952;21.714;2022-11-02T04:35:05;100931.66;;;11.00;100.00
43071;BME280;36278;47.952;21.714;2022-11-02T04:37:30;100924.13;;;11.07;100.00
43071;BME280;36278;47.952;21.714;2022-11-02T04:40:19;100925.75;;;11.09;100.00
43071;BME280;36278;47.952;21.714;2022-11-02T04:42:47;100923.81;;;11.11;100.00
43071;BME280;36278;47.952;21.714;2022-11-02T04:45:13;100916.41;;;11.16;100.00
43071;BME280;36278;47.952;21.714;2022-11-02T04:47:38;100921.19;;;11.24;100.00
43071;BME280;36278;47.952;21.714;2022-11-02T04:50:04;100920.00;;;11.28;100.00
43071;BME280;36278;47.952;21.714;2022-11-02T04:52:29;100915.78;;;11.26;100.00
43071;BME280;36278;47.952;21.714;2022-11-02T04:54:54;100922.13;;;11.23;100.00
43071;BME280;36278;47.952;21.714;2022-11-02T04:57:20;100934.22;;;11.14;100.00
43071;BME280;36278;47.952;21.714;2022-11-02T04:59:45;100946.09;;;11.21;100.00
43071;BME280;36278;47.952;21.714;2022-11-02T05:02:11;100943.25;;;11.25;100.00
43071;BME280;36278;47.952;21.714;2022-11-02T05:04:36;100926.56;;;11.22;100.00
43071;BME280;36278;47.952;21.714;2022-11-02T05:07:01;100932.72;;;11.23;100.00
43071;BME280;36278;47.952;21.714;2022-11-02T05:09:32;100938.25;;;11.20;100.00
43071;BME280;36278;47.952;21.714;2022-11-02T05:11:57;100923.28;;;11.19;100.00
43071;BME280;36278;47.952;21.714;2022-11-02T05:14:23;100928.28;;;11.23;100.00
43071;BME280;36278;47.952;21.714;2022-11-02T05:16:49;100922.97;;;11.23;100.00
43071;BME280;36278;47.952;21.714;2022-11-02T05:19:14;100918.22;;;11.29;100.00
43071;BME280;36278;47.952;21.714;2022-11-02T05:21:39;100937.72;;;11.28;100.00
43071;BME280;36278;47.952;21.714;2022-11-02T05:24:05;100941.13;;;11.30;100.00
43071;BME280;36278;47.952;21.714;2022-11-02T05:26:31;100927.75;;;11.31;100.00
43071;BME280;36278;47.952;21.714;2022-11-02T05:28:56;100917.25;;;11.30;100.00
43071;BME280;36278;47.952;21.714;2022-11-02T05:31:22;100927.66;;;11.33;100.00
43071;BME280;36278;47.952;21.714;2022-11-02T05:33:47;100928.06;;;11.27;100.00
43071;BME280;36278;47.952;21.714;2022-11-02T05:36:12;100932.84;;;11.21;100.00
43071;BME280;36278;47.952;21.714;2022-11-02T05:38:38;100928.59;;;11.19;100.00
43071;BME280;36278;47.952;21.714;2022-11-02T05:41:03;100930.41;;;11.18;100.00
43071;BME280;36278;47.952;21.714;2022-11-02T05:43:29;100936.44;;;11.20;100.00
43071;BME280;36278;47.952;21.714;2022-11-02T05:45:58;100935.59;;;11.20;100.00
43071;BME280;36278;47.952;21.714;2022-11-02T05:48:25;100939.84;;;11.22;100.00
43071;BME280;36278;47.952;21.714;2022-11-02T05:50:58;100939.44;;;11.29;100.00
43071;BME280;36278;47.952;21.714;2022-11-02T05:53:24;100946.66;;;11.27;100.00
43071;BME280;36278;47.952;21.714;2022-11-02T05:55:51;100948.63;;;11.23;100.00
43071;BME280;36278;47.952;21.714;2022-11-02T05:58:16;100945.13;;;11.22;100.00
43071;BME280;36278;47.952;21.714;2022-11-02T06:00:42;100954.78;;;11.23;100.00
43071;BME280;36278;47.952;21.714;2022-11-02T06:03:07;100960.75;;;11.27;100.00
43071;BME280;36278;47.952;21.714;2022-11-02T06:05:33;100970.50;;;11.27;100.00
43071;BME280;36278;47.952;21.714;2022-11-02T06:08:01;100984.41;;;11.30;100.00
43071;BME280;36278;47.952;21.714;2022-11-02T06:10:30;100998.94;;;11.37;100.00
43071;BME280;36278;47.952;21.714;2022-11-02T06:13:00;101003.97;;;11.42;100.00
43071;BME280;36278;47.952;21.714;2022-11-02T06:15:26;101005.25;;;11.49;100.00
43071;BME280;36278;47.952;21.714;2022-11-02T06:17:52;101004.06;;;11.53;100.00
43071;BME280;36278;47.952;21.714;2022-11-02T06:20:18;100997.28;;;11.49;100.00
43071;BME280;36278;47.952;21.714;2022-11-02T06:22:44;101004.81;;;11.42;100.00
43071;BME280;36278;47.952;21.714;2022-11-02T06:25:10;101004.25;;;11.25;100.00
43071;BME280;36278;47.952;21.714;2022-11-02T06:27:35;101014.44;;;11.31;100.00
43071;BME280;36278;47.952;21.714;2022-11-02T06:30:02;101016.44;;;11.40;100.00
43071;BME280;36278;47.952;21.714;2022-11-02T06:32:27;101021.44;;;11.32;100.00
43071;BME280;36278;47.952;21.714;2022-11-02T06:34:53;101035.78;;;11.42;100.00
43071;BME280;36278;47.952;21.714;2022-11-02T06:37:18;101036.09;;;11.37;100.00
43071;BME280;36278;47.952;21.714;2022-11-02T06:39:44;101034.72;;;11.44;100.00
43071;BME280;36278;47.952;21.714;2022-11-02T06:42:10;101038.66;;;11.51;100.00
43071;BME280;36278;47.952;21.714;2022-11-02T06:44:36;101049.50;;;11.48;100.00
43071;BME280;36278;47.952;21.714;2022-11-02T06:47:01;101050.75;;;11.56;100.00
43071;BME280;36278;47.952;21.714;2022-11-02T06:49:27;101042.81;;;11.68;100.00
43071;BME280;36278;47.952;21.714;2022-11-02T06:51:52;101054.72;;;11.75;100.00
43071;BME280;36278;47.952;21.714;2022-11-02T06:54:18;101055.56;;;11.76;100.00
43071;BME280;36278;47.952;21.714;2022-11-02T06:56:43;101049.28;;;11.77;100.00
43071;BME280;36278;47.952;21.714;2022-11-02T06:59:09;101046.72;;;11.63;100.00
43071;BME280;36278;47.952;21.714;2022-11-02T07:01:34;101054.53;;;11.26;100.00
43071;BME280;36278;47.952;21.714;2022-11-02T07:04:01;101055.00;;;11.45;100.00
43071;BME280;36278;47.952;21.714;2022-11-02T07:06:26;101064.13;;;11.54;100.00
43071;BME280;36278;47.952;21.714;2022-11-02T07:08:53;101049.91;;;11.55;100.00
43071;BME280;36278;47.952;21.714;2022-11-02T07:11:19;101061.06;;;11.60;100.00
43071;BME280;36278;47.952;21.714;2022-11-02T07:13:46;101058.00;;;11.66;100.00
43071;BME280;36278;47.952;21.714;2022-11-02T07:16:11;101061.06;;;11.60;100.00
43071;BME280;36278;47.952;21.714;2022-11-02T07:18:37;101044.03;;;11.25;100.00
43071;BME280;36278;47.952;21.714;2022-11-02T07:21:02;101044.38;;;11.33;100.00
43071;BME280;36278;47.952;21.714;2022-11-02T07:23:28;101053.00;;;11.49;100.00
43071;BME280;36278;47.952;21.714;2022-11-02T07:25:53;101053.84;;;11.62;100.00
43071;BME280;36278;47.952;21.714;2022-11-02T07:28:19;101061.41;;;11.68;100.00
43071;BME280;36278;47.952;21.714;2022-11-02T07:30:44;101048.19;;;11.81;100.00
43071;BME280;36278;47.952;21.714;2022-11-02T07:33:10;101052.06;;;11.75;100.00
43071;BME280;36278;47.952;21.714;2022-11-02T07:35:36;101040.78;;;11.59;100.00
43071;BME280;36278;47.952;21.714;2022-11-02T07:38:04;101051.94;;;11.64;100.00
43071;BME280;36278;47.952;21.714;2022-11-02T07:40:30;101045.69;;;11.65;100.00
43071;BME280;36278;47.952;21.714;2022-11-02T07:42:57;101046.84;;;11.61;100.00
43071;BME280;36278;47.952;21.714;2022-11-02T07:45:23;101053.66;;;11.65;100.00
43071;BME280;36278;47.952;21.714;2022-11-02T07:47:49;101040.16;;;11.68;100.00
43071;BME280;36278;47.952;21.714;2022-11-02T07:50:18;101043.56;;;11.70;100.00
43071;BME280;36278;47.952;21.714;2022-11-02T07:52:51;101049.38;;;11.63;100.00
43071;BME280;36278;47.952;21.714;2022-11-02T07:55:20;101041.63;;;11.72;100.00
43071;BME280;36278;47.952;21.714;2022-11-02T07:58:00;101049.41;;;11.75;100.00
43071;BME280;36278;47.952;21.714;2022-11-02T08:00:28;101044.50;;;11.69;100.00
43071;BME280;36278;47.952;21.714;2022-11-02T08:02:57;101041.00;;;11.69;100.00
43071;BME280;36278;47.952;21.714;2022-11-02T08:05:24;101055.34;;;11.66;100.00
43071;BME280;36278;47.952;21.714;2022-11-02T08:07:57;101049.28;;;11.64;100.00
43071;BME280;36278;47.952;21.714;2022-11-02T08:10:23;101047.59;;;11.76;100.00
43071;BME280;36278;47.952;21.714;2022-11-02T08:12:48;101045.72;;;11.91;100.00
43071;BME280;36278;47.952;21.714;2022-11-02T08:15:14;101039.56;;;11.90;100.00
43071;BME280;36278;47.952;21.714;2022-11-02T08:17:39;101043.50;;;11.85;100.00
43071;BME280;36278;47.952;21.714;2022-11-02T08:20:05;101048.50;;;11.89;100.00
43071;BME280;36278;47.952;21.714;2022-11-02T08:22:36;101055.91;;;11.97;100.00
43071;BME280;36278;47.952;21.714;2022-11-02T08:25:01;101051.66;;;12.07;100.00
43071;BME280;36278;47.952;21.714;2022-11-02T08:27:26;101057.47;;;12.25;100.00
43071;BME280;36278;47.952;21.714;2022-11-02T08:29:52;101045.03;;;12.38;100.00
43071;BME280;36278;47.952;21.714;2022-11-02T08:32:17;101045.41;;;12.45;100.00
43071;BME280;36278;47.952;21.714;2022-11-02T08:34:43;101047.38;;;12.67;100.00
43071;BME280;36278;47.952;21.714;2022-11-02T08:37:08;101057.69;;;12.71;100.00
43071;BME280;36278;47.952;21.714;2022-11-02T08:39:34;101052.03;;;13.00;100.00
43071;BME280;36278;47.952;21.714;2022-11-02T08:41:59;101051.63;;;13.17;99.59
43071;BME280;36278;47.952;21.714;2022-11-02T08:44:25;101051.75;;;13.39;98.53
43071;BME280;36278;47.952;21.714;2022-11-02T08:46:50;101063.22;;;13.40;97.85
43071;BME280;36278;47.952;21.714;2022-11-02T08:49:16;101055.69;;;13.10;99.67
43071;BME280;36278;47.952;21.714;2022-11-02T08:51:43;101044.97;;;12.87;100.00
43071;BME280;36278;47.952;21.714;2022-11-02T08:54:10;101055.22;;;13.05;99.96
43071;BME280;36278;47.952;21.714;2022-11-02T08:56:36;101052.88;;;13.00;98.68
43071;BME280;36278;47.952;21.714;2022-11-02T08:59:01;101045.75;;;12.77;100.00
43071;BME280;36278;47.952;21.714;2022-11-02T09:01:27;101046.09;;;12.72;100.00
43071;BME280;36278;47.952;21.714;2022-11-02T09:03:52;101042.63;;;12.83;100.00
43071;BME280;36278;47.952;21.714;2022-11-02T09:06:17;101049.50;;;12.98;100.00
43071;BME280;36278;47.952;21.714;2022-11-02T09:08:43;101051.22;;;13.10;99.95
43071;BME280;36278;47.952;21.714;2022-11-02T09:11:09;101043.63;;;13.17;99.34
43071;BME280;36278;47.952;21.714;2022-11-02T09:13:36;101043.81;;;13.27;98.95
43071;BME280;36278;47.952;21.714;2022-11-02T09:16:02;101030.50;;;13.27;99.17
43071;BME280;36278;47.952;21.714;2022-11-02T09:18:28;101036.28;;;13.44;97.71
43071;BME280;36278;47.952;21.714;2022-11-02T09:20:53;101034.09;;;13.50;96.96
43071;BME280;36278;47.952;21.714;2022-11-02T09:23:20;101044.28;;;13.56;96.08
43071;BME280;36278;47.952;21.714;2022-11-02T09:25:46;101034.41;;;13.69;97.12
43071;BME280;36278;47.952;21.714;2022-11-02T09:28:13;101037.41;;;13.75;96.86
43071;BME280;36278;47.952;21.714;2022-11-02T09:30:40;101033.81;;;13.77;96.21
43071;BME280;36278;47.952;21.714;2022-11-02T09:33:06;101032.13;;;13.87;96.34
43071;BME280;36278;47.952;21.714;2022-11-02T09:35:36;101029.94;;;13.92;95.29
43071;BME280;36278;47.952;21.714;2022-11-02T09:38:02;101019.28;;;14.14;95.17
43071;BME280;36278;47.952;21.714;2022-11-02T09:40:35;101011.53;;;14.11;94.30
43071;BME280;36278;47.952;21.714;2022-11-02T09:45:32;101015.03;;;14.23;94.35
43071;BME280;36278;47.952;21.714;2022-11-02T09:48:10;101013.00;;;14.26;91.94
43071;BME280;36278;47.952;21.714;2022-11-02T09:50:41;101014.78;;;14.15;93.43
43071;BME280;36278;47.952;21.714;2022-11-02T09:53:13;101009.47;;;13.92;95.00
43071;BME280;36278;47.952;21.714;2022-11-02T09:55:48;101005.09;;;13.91;95.51
43071;BME280;36278;47.952;21.714;2022-11-02T09:58:20;101011.66;;;14.10;95.24
43071;BME280;36278;47.952;21.714;2022-11-02T10:00:50;101011.78;;;14.19;94.10
43071;BME280;36278;47.952;21.714;2022-11-02T10:03:52;101013.84;;;14.27;94.71
43071;BME280;36278;47.952;21.714;2022-11-02T10:06:21;101009.81;;;14.44;93.57
43071;BME280;36278;47.952;21.714;2022-11-02T10:11:52;101009.13;;;14.85;91.24
43071;BME280;36278;47.952;21.714;2022-11-02T10:14:38;101003.09;;;15.04;89.74
43071;BME280;36278;47.952;21.714;2022-11-02T10:17:12;100995.63;;;15.19;88.17
43071;BME280;36278;47.952;21.714;2022-11-02T10:19:42;100991.97;;;15.20;88.75
43071;BME280;36278;47.952;21.714;2022-11-02T10:22:13;100987.78;;;15.06;90.01
43071;BME280;36278;47.952;21.714;2022-11-02T10:24:44;100991.66;;;15.13;88.96
43071;BME280;36278;47.952;21.714;2022-11-02T10:27:32;100988.59;;;15.18;87.39
43071;BME280;36278;47.952;21.714;2022-11-02T10:32:29;100985.81;;;15.40;88.22
43071;BME280;36278;47.952;21.714;2022-11-02T10:34:56;100984.63;;;15.54;87.60
43071;BME280;36278;47.952;21.714;2022-11-02T10:51:13;100979.25;;;15.65;87.97
43071;BME280;36278;47.952;21.714;2022-11-02T10:53:50;100984.94;;;15.60;87.60
43071;BME280;36278;47.952;21.714;2022-11-02T10:56:19;100979.34;;;15.63;85.94
43071;BME280;36278;47.952;21.714;2022-11-02T11:01:26;100962.28;;;15.76;87.74
43071;BME280;36278;47.952;21.714;2022-11-02T11:04:04;100965.97;;;15.84;89.27
43071;BME280;36278;47.952;21.714;2022-11-02T11:06:41;100966.47;;;15.99;90.61
43071;BME280;36278;47.952;21.714;2022-11-02T11:09:37;100959.44;;;15.98;84.53
43071;BME280;36278;47.952;21.714;2022-11-02T11:12:19;100962.47;;;15.84;85.05
43071;BME280;36278;47.952;21.714;2022-11-02T11:14:47;100966.13;;;15.83;85.83
43071;BME280;36278;47.952;21.714;2022-11-02T11:17:23;100966.84;;;15.94;83.77
43071;BME280;36278;47.952;21.714;2022-11-02T11:19:55;100962.78;;;15.90;84.48
43071;BME280;36278;47.952;21.714;2022-11-02T11:22:28;100960.00;;;16.02;83.99
43071;BME280;36278;47.952;21.714;2022-11-02T11:25:22;100951.28;;;16.09;85.26
43071;BME280;36278;47.952;21.714;2022-11-02T11:27:53;100943.44;;;16.27;83.33
43071;BME280;36278;47.952;21.714;2022-11-02T11:30:38;100946.19;;;16.46;82.65
43071;BME280;36278;47.952;21.714;2022-11-02T11:33:04;100946.59;;;16.51;82.20
43071;BME280;36278;47.952;21.714;2022-11-02T11:35:37;100944.34;;;16.47;82.21
43071;BME280;36278;47.952;21.714;2022-11-02T11:38:13;100937.78;;;16.70;81.23
43071;BME280;36278;47.952;21.714;2022-11-02T11:40:44;100946.81;;;16.79;80.26
43071;BME280;36278;47.952;21.714;2022-11-02T11:43:12;100944.94;;;16.99;78.54
43071;BME280;36278;47.952;21.714;2022-11-02T11:45:39;100939.72;;;17.07;78.79
43071;BME280;36278;47.952;21.714;2022-11-02T11:48:31;100951.56;;;17.14;78.57
43071;BME280;36278;47.952;21.714;2022-11-02T11:51:00;100945.44;;;17.41;77.67
43071;BME280;36278;47.952;21.714;2022-11-02T11:53:26;100955.38;;;17.78;75.66
43071;BME280;36278;47.952;21.714;2022-11-02T11:55:54;100955.00;;;18.00;73.60
43071;BME280;36278;47.952;21.714;2022-11-02T11:58:24;100949.88;;;18.07;72.86
43071;BME280;36278;47.952;21.714;2022-11-02T12:03:58;100945.31;;;18.17;71.92
43071;BME280;36278;47.952;21.714;2022-11-02T12:09:42;100944.84;;;18.21;72.24
43071;BME280;36278;47.952;21.714;2022-11-02T12:15:23;100941.66;;;17.44;75.06
43071;BME280;36278;47.952;21.714;2022-11-02T12:24:42;100937.34;;;17.98;73.53
43071;BME280;36278;47.952;21.714;2022-11-02T12:40:17;100938.03;;;18.00;72.45
43071;BME280;36278;47.952;21.714;2022-11-02T12:45:42;100940.28;;;17.77;74.77
43071;BME280;36278;47.952;21.714;2022-11-02T12:48:43;100926.28;;;17.83;73.61
43071;BME280;36278;47.952;21.714;2022-11-02T12:51:13;100937.72;;;17.28;76.70
43071;BME280;36278;47.952;21.714;2022-11-02T12:53:47;100943.53;;;17.04;77.94
43071;BME280;36278;47.952;21.714;2022-11-02T12:56:29;100914.63;;;17.64;75.69
43071;BME280;36278;47.952;21.714;2022-11-02T12:58:58;100928.59;;;18.23;73.64
43071;BME280;36278;47.952;21.714;2022-11-02T13:01:34;100923.06;;;18.52;72.06
43071;BME280;36278;47.952;21.714;2022-11-02T13:04:12;100922.22;;;18.87;70.14
43071;BME280;36278;47.952;21.714;2022-11-02T13:06:44;100925.28;;;18.92;68.90
43071;BME280;36278;47.952;21.714;2022-11-02T13:09:22;100930.63;;;18.57;70.68
43071;BME280;36278;47.952;21.714;2022-11-02T13:14:30;100923.44;;;18.57;70.19
43071;BME280;36278;47.952;21.714;2022-11-02T13:17:10;100916.09;;;18.59;70.56
43071;BME280;36278;47.952;21.714;2022-11-02T13:19:48;100928.56;;;18.51;70.66
43071;BME280;36278;47.952;21.714;2022-11-02T13:22:20;100916.59;;;18.27;70.80
43071;BME280;36278;47.952;21.714;2022-11-02T13:24:54;100927.56;;;18.34;71.27
43071;BME280;36278;47.952;21.714;2022-11-02T13:27:26;100917.97;;;18.31;72.04
43071;BME280;36278;47.952;21.714;2022-11-02T13:30:00;100913.66;;;18.66;70.14
43071;BME280;36278;47.952;21.714;2022-11-02T13:38:00;100920.13;;;18.63;70.47
43071;BME280;36278;47.952;21.714;2022-11-02T13:40:45;100912.25;;;18.44;71.49
43071;BME280;36278;47.952;21.714;2022-11-02T13:51:36;100925.81;;;17.60;75.55
43071;BME280;36278;47.952;21.714;2022-11-02T13:54:14;100927.16;;;17.74;75.64
43071;BME280;36278;47.952;21.714;2022-11-02T13:56:42;100922.66;;;17.74;74.28
43071;BME280;36278;47.952;21.714;2022-11-02T13:59:33;100941.47;;;17.55;75.29
43071;BME280;36278;47.952;21.714;2022-11-02T14:02:04;100926.72;;;17.31;76.65
43071;BME280;36278;47.952;21.714;2022-11-02T14:04:39;100941.66;;;17.34;76.76
43071;BME280;36278;47.952;21.714;2022-11-02T14:07:22;100944.56;;;17.60;75.80
43071;BME280;36278;47.952;21.714;2022-11-02T14:09:56;100936.97;;;17.92;75.07
43071;BME280;36278;47.952;21.714;2022-11-02T14:12:25;100938.31;;;18.52;72.31
43071;BME280;36278;47.952;21.714;2022-11-02T14:25:54;100923.97;;;19.14;68.58
43071;BME280;36278;47.952;21.714;2022-11-02T14:30:59;100937.72;;;18.93;69.66
43071;BME280;36278;47.952;21.714;2022-11-02T14:39:46;100935.31;;;18.55;70.64
43071;BME280;36278;47.952;21.714;2022-11-02T14:45:09;100943.13;;;17.19;77.25
43071;BME280;36278;47.952;21.714;2022-11-02T14:47:41;100953.00;;;16.70;80.15
43071;BME280;36278;47.952;21.714;2022-11-02T14:50:15;100951.50;;;16.37;81.80
43071;BME280;36278;47.952;21.714;2022-11-02T14:53:18;100944.72;;;16.13;83.08
43071;BME280;36278;47.952;21.714;2022-11-02T14:55:38;100945.44;;;15.85;85.25
43071;BME280;36278;47.952;21.714;2022-11-02T14:58:07;100943.53;;;15.66;86.54
43071;BME280;36278;47.952;21.714;2022-11-02T15:06:12;100954.41;;;15.11;90.71